createdAt,value
2023-05-09T00:00:54.882Z,62.94
2023-05-09T00:01:58.502Z,63.38
2023-05-09T00:03:02.902Z,62.99
2023-05-09T00:04:06.400Z,63.13
2023-05-09T00:05:10.042Z,62.88
2023-05-09T00:06:13.542Z,63.26
2023-05-09T00:07:15.941Z,63.08
2023-05-09T00:08:19.788Z,63.16
2023-05-09T00:09:22.176Z,63.16
2023-05-09T00:10:25.460Z,63.04
2023-05-09T00:11:28.038Z,63.07
2023-05-09T00:12:32.250Z,63.32
2023-05-09T00:13:35.527Z,63.28
2023-05-09T00:14:40.838Z,63.53
2023-05-09T00:15:44.606Z,63.05
2023-05-09T00:16:48.467Z,63.28
2023-05-09T00:17:50.954Z,63.30
2023-05-09T00:18:54.468Z,62.79
2023-05-09T00:19:56.845Z,62.88
2023-05-09T00:21:03.160Z,62.94
2023-05-09T00:22:05.593Z,63.23
2023-05-09T00:23:08.992Z,63.00
2023-05-09T00:24:11.945Z,63.05
2023-05-09T00:25:15.627Z,63.15
2023-05-09T00:26:18.204Z,62.77
2023-05-09T00:27:21.561Z,62.90
2023-05-09T00:28:23.900Z,62.99
2023-05-09T00:29:27.333Z,62.99
2023-05-09T00:30:29.795Z,63.20
2023-05-09T00:31:34.520Z,63.17
2023-05-09T00:32:37.227Z,63.03
2023-05-09T00:33:40.660Z,63.07
2023-05-09T00:34:43.693Z,63.27
2023-05-09T00:35:47.120Z,63.19
2023-05-09T00:36:50.754Z,63.06
2023-05-09T00:37:54.239Z,63.11
2023-05-09T00:38:56.572Z,63.06
2023-05-09T00:40:00.621Z,63.20
2023-05-09T00:41:03.170Z,62.98
2023-05-09T00:42:06.747Z,63.28
2023-05-09T00:43:09.198Z,62.82
2023-05-09T00:44:12.520Z,62.93
2023-05-09T00:45:15.645Z,63.20
2023-05-09T00:46:19.398Z,63.21
2023-05-09T00:47:24.117Z,63.28
2023-05-09T00:48:27.543Z,63.15
2023-05-09T00:49:30.104Z,63.19
2023-05-09T00:50:34.208Z,63.09
2023-05-09T00:51:37.235Z,63.24
2023-05-09T00:52:40.736Z,62.72
2023-05-09T00:53:43.160Z,62.96
2023-05-09T00:54:46.442Z,62.97
2023-05-09T00:55:49.205Z,62.83
2023-05-09T00:56:53.088Z,63.16
2023-05-09T00:57:55.479Z,63.01
2023-05-09T00:58:58.897Z,62.93
2023-05-09T01:00:01.984Z,62.69
2023-05-09T01:01:06.751Z,62.78
2023-05-09T01:02:09.196Z,62.62
2023-05-09T01:03:14.074Z,62.92
2023-05-09T01:04:17.124Z,63.12
2023-05-09T01:05:21.343Z,63.00
2023-05-09T01:06:39.764Z,62.96
2023-05-09T01:07:50.947Z,62.96
2023-05-09T01:08:59.975Z,62.91
2023-05-09T01:10:10.435Z,63.16
2023-05-09T01:11:23.035Z,62.93
2023-05-09T01:12:36.666Z,62.91
2023-05-09T01:13:50.493Z,62.79
2023-05-09T01:15:09.859Z,62.68
2023-05-09T01:16:20.755Z,62.55
2023-05-09T01:17:35.788Z,62.60
2023-05-09T01:18:46.177Z,62.47
2023-05-09T01:20:00.826Z,62.80
2023-05-09T01:21:08.919Z,62.61
2023-05-09T01:22:16.365Z,62.65
2023-05-09T01:23:40.218Z,62.77
2023-05-09T01:25:20.871Z,62.73
2023-05-09T01:26:35.176Z,62.96
2023-05-09T01:27:49.716Z,62.84
2023-05-09T01:29:18.194Z,62.55
2023-05-09T01:30:22.156Z,62.88
2023-05-09T01:31:25.951Z,62.85
2023-05-09T01:32:31.763Z,62.49
2023-05-09T01:33:38.738Z,62.58
2023-05-09T01:34:44.882Z,62.64
2023-05-09T01:35:54.419Z,62.40
2023-05-09T01:36:59.800Z,62.41
2023-05-09T01:38:05.999Z,62.51
2023-05-09T01:39:13.713Z,62.60
2023-05-09T01:40:20.350Z,63.06
2023-05-09T01:41:24.144Z,62.83
2023-05-09T01:42:32.174Z,62.78
2023-05-09T01:43:36.364Z,62.99
2023-05-09T01:44:43.795Z,63.02
2023-05-09T01:45:48.342Z,63.31
2023-05-09T01:46:54.066Z,63.30
2023-05-09T01:47:58.336Z,63.41
2023-05-09T01:49:02.510Z,63.30
2023-05-09T01:50:07.344Z,63.20
2023-05-09T01:51:12.414Z,63.36
2023-05-09T01:52:17.886Z,63.07
2023-05-09T01:53:23.291Z,63.05
2023-05-09T01:54:26.930Z,63.13
2023-05-09T01:55:35.704Z,63.36
2023-05-09T01:56:41.064Z,63.22
2023-05-09T01:57:45.186Z,63.07
2023-05-09T01:58:50.170Z,63.25
2023-05-09T01:59:56.623Z,63.35
2023-05-09T02:01:01.242Z,63.19
2023-05-09T02:02:05.867Z,62.99
2023-05-09T02:03:09.166Z,63.26
2023-05-09T02:04:14.047Z,63.16
2023-05-09T02:05:18.653Z,63.45
2023-05-09T02:06:24.904Z,62.88
2023-05-09T02:07:30.055Z,63.29
2023-05-09T02:08:34.390Z,63.37
2023-05-09T02:09:36.920Z,63.62
2023-05-09T02:10:40.908Z,63.54
2023-05-09T02:11:43.893Z,63.71
2023-05-09T02:12:47.259Z,63.79
2023-05-09T02:13:50.836Z,63.83
2023-05-09T02:14:55.728Z,63.64
2023-05-09T02:15:58.545Z,63.73
2023-05-09T02:17:06.477Z,63.74
2023-05-09T02:18:09.245Z,63.82
2023-05-09T02:19:12.610Z,63.63
2023-05-09T02:20:15.124Z,63.57
2023-05-09T02:21:18.600Z,63.75
2023-05-09T02:22:21.100Z,63.61
2023-05-09T02:23:24.456Z,63.40
2023-05-09T02:24:26.910Z,63.50
2023-05-09T02:25:30.838Z,63.28
2023-05-09T02:26:34.650Z,63.42
2023-05-09T02:27:40.836Z,63.38
2023-05-09T02:28:45.776Z,63.40
2023-05-09T02:29:52.099Z,63.70
2023-05-09T02:30:57.297Z,63.87
2023-05-09T02:32:02.661Z,63.73
2023-05-09T02:33:08.033Z,63.95
2023-05-09T02:34:13.113Z,64.09
2023-05-09T02:35:17.571Z,64.17
2023-05-09T02:36:22.032Z,64.24
2023-05-09T02:37:26.058Z,64.07
2023-05-09T02:38:29.926Z,64.30
2023-05-09T02:39:32.686Z,64.00
2023-05-09T02:40:36.679Z,63.90
2023-05-09T02:41:39.297Z,63.70
2023-05-09T02:42:42.863Z,63.99
2023-05-09T02:43:46.061Z,63.98
2023-05-09T02:44:49.535Z,63.81
2023-05-09T02:45:52.133Z,63.73
2023-05-09T02:46:56.814Z,63.72
2023-05-09T02:47:59.281Z,63.88
2023-05-09T02:49:03.500Z,63.81
2023-05-09T02:50:07.129Z,63.73
2023-05-09T02:51:10.554Z,63.95
2023-05-09T02:52:12.984Z,63.79
2023-05-09T02:53:16.404Z,63.90
2023-05-09T02:54:18.830Z,63.67
2023-05-09T02:55:22.110Z,63.68
2023-05-09T02:56:24.498Z,63.93
2023-05-09T02:57:27.845Z,63.70
2023-05-09T02:58:30.267Z,63.93
2023-05-09T02:59:34.058Z,63.70
2023-05-09T03:00:40.428Z,63.92
2023-05-09T03:01:50.695Z,63.88
2023-05-09T03:03:04.074Z,63.94
2023-05-09T03:04:15.028Z,64.00
2023-05-09T03:05:19.022Z,64.21
2023-05-09T03:06:22.398Z,64.32
2023-05-09T03:07:24.780Z,64.39
2023-05-09T03:08:28.107Z,64.49
2023-05-09T03:09:30.522Z,64.41
2023-05-09T03:10:33.922Z,64.61
2023-05-09T03:11:36.924Z,64.70
2023-05-09T03:12:43.859Z,64.92
2023-05-09T03:13:46.366Z,64.90
2023-05-09T03:14:49.750Z,64.84
2023-05-09T03:15:53.652Z,64.71
2023-05-09T03:16:55.984Z,64.72
2023-05-09T03:18:00.767Z,65.13
2023-05-09T03:19:03.271Z,65.11
2023-05-09T03:20:10.465Z,65.53
2023-05-09T03:21:14.790Z,65.78
2023-05-09T03:22:17.166Z,65.57
2023-05-09T03:23:20.565Z,65.43
2023-05-09T03:24:23.382Z,65.81
2023-05-09T03:25:27.350Z,66.08
2023-05-09T03:26:30.270Z,65.80
2023-05-09T03:27:33.575Z,66.16
2023-05-09T03:28:35.951Z,66.01
2023-05-09T03:29:39.232Z,66.37
2023-05-09T03:30:41.588Z,66.35
2023-05-09T03:31:45.553Z,66.66
2023-05-09T03:32:48.048Z,66.62
2023-05-09T03:33:52.777Z,66.89
2023-05-09T03:34:55.183Z,67.01
2023-05-09T03:35:58.724Z,67.20
2023-05-09T03:37:02.776Z,67.20
2023-05-09T03:38:06.326Z,67.46
2023-05-09T03:39:09.102Z,67.28
2023-05-09T03:40:13.110Z,67.53
2023-05-09T03:41:17.384Z,67.52
2023-05-09T03:42:22.079Z,67.72
2023-05-09T03:43:24.440Z,67.53
2023-05-09T03:44:27.813Z,67.71
2023-05-09T03:45:30.578Z,67.71
2023-05-09T03:46:34.013Z,67.76
2023-05-09T03:47:36.569Z,67.92
2023-05-09T03:48:39.851Z,67.71
2023-05-09T03:49:43.610Z,67.92
2023-05-09T03:50:46.902Z,67.75
2023-05-09T03:51:49.430Z,67.73
2023-05-09T03:52:52.753Z,67.64
2023-05-09T03:53:55.482Z,67.36
2023-05-09T03:54:59.358Z,67.37
2023-05-09T03:56:02.411Z,67.29
2023-05-09T03:57:05.834Z,67.43
2023-05-09T03:58:08.246Z,67.21
2023-05-09T03:59:11.592Z,67.24
2023-05-09T04:00:14.402Z,67.72
2023-05-09T04:01:19.996Z,67.89
2023-05-09T04:02:23.103Z,68.00
2023-05-09T04:03:27.132Z,68.18
2023-05-09T04:04:29.916Z,68.19
2023-05-09T04:05:35.478Z,68.39
2023-05-09T04:06:38.661Z,68.30
2023-05-09T04:07:42.399Z,68.50
2023-05-09T04:08:44.846Z,68.79
2023-05-09T04:09:49.606Z,68.51
2023-05-09T04:10:52.562Z,68.78
2023-05-09T04:11:56.157Z,68.83
2023-05-09T04:12:58.852Z,69.04
2023-05-09T04:14:03.313Z,68.96
2023-05-09T04:15:07.902Z,69.20
2023-05-09T04:16:11.193Z,69.08
2023-05-09T04:17:14.262Z,69.45
2023-05-09T04:18:17.712Z,69.68
2023-05-09T04:19:20.191Z,69.69
2023-05-09T04:20:23.730Z,69.88
2023-05-09T04:21:27.628Z,69.93
2023-05-09T04:22:31.809Z,70.18
2023-05-09T04:23:34.233Z,70.13
2023-05-09T04:24:38.197Z,70.02
2023-05-09T04:25:41.152Z,70.03
2023-05-09T04:26:44.549Z,69.85
2023-05-09T04:27:47.589Z,69.78
2023-05-09T04:28:50.953Z,69.62
2023-05-09T04:29:53.894Z,69.33
2023-05-09T04:30:57.381Z,69.10
2023-05-09T04:32:00.049Z,69.14
2023-05-09T04:33:03.645Z,68.61
2023-05-09T04:34:06.636Z,68.35
2023-05-09T04:35:10.444Z,68.07
2023-05-09T04:36:12.834Z,67.85
2023-05-09T04:37:17.743Z,67.75
2023-05-09T04:38:20.285Z,67.63
2023-05-09T04:39:23.687Z,67.62
2023-05-09T04:40:27.037Z,67.36
2023-05-09T04:41:31.049Z,67.32
2023-05-09T04:42:33.970Z,67.12
2023-05-09T04:43:37.314Z,66.99
2023-05-09T04:44:39.952Z,67.04
2023-05-09T04:45:43.347Z,66.53
2023-05-09T04:46:45.919Z,66.11
2023-05-09T04:47:49.491Z,66.12
2023-05-09T04:48:51.900Z,66.21
2023-05-09T04:49:55.277Z,66.10
2023-05-09T04:50:57.734Z,66.10
2023-05-09T04:52:01.185Z,66.21
2023-05-09T04:53:05.044Z,66.37
2023-05-09T04:54:09.246Z,66.15
2023-05-09T04:55:11.687Z,66.17
2023-05-09T04:56:15.096Z,65.96
2023-05-09T04:57:18.784Z,66.01
2023-05-09T04:58:22.550Z,66.09
2023-05-09T04:59:25.554Z,66.11
2023-05-09T05:00:28.955Z,65.86
2023-05-09T05:01:31.413Z,65.79
2023-05-09T05:02:34.792Z,65.60
2023-05-09T05:03:37.176Z,65.35
2023-05-09T05:04:41.168Z,65.48
2023-05-09T05:05:44.013Z,65.13
2023-05-09T05:06:47.304Z,64.79
2023-05-09T05:07:49.675Z,64.64
2023-05-09T05:08:54.338Z,63.95
2023-05-09T05:09:56.766Z,63.32
2023-05-09T05:11:00.188Z,63.18
2023-05-09T05:12:04.179Z,62.69
2023-05-09T05:13:08.279Z,61.92
2023-05-09T05:14:10.665Z,61.09
2023-05-09T05:15:15.300Z,60.26
2023-05-09T05:16:17.847Z,59.80
2023-05-09T05:17:21.902Z,59.00
2023-05-09T05:18:24.362Z,58.60
2023-05-09T05:19:27.856Z,57.72
2023-05-09T05:20:30.378Z,57.64
2023-05-09T05:21:34.445Z,56.95
2023-05-09T05:22:37.121Z,56.44
2023-05-09T05:23:40.571Z,55.71
2023-05-09T05:24:44.439Z,55.05
2023-05-09T05:25:47.857Z,54.48
2023-05-09T05:26:50.355Z,54.29
2023-05-09T05:27:53.724Z,53.88
2023-05-09T05:28:57.266Z,53.71
2023-05-09T05:30:00.877Z,53.12
2023-05-09T05:31:03.350Z,52.29
2023-05-09T05:32:06.770Z,52.16
2023-05-09T05:33:09.351Z,51.34
2023-05-09T05:34:12.844Z,50.92
2023-05-09T05:35:16.193Z,50.54
2023-05-09T05:36:19.942Z,50.53
2023-05-09T05:37:22.407Z,49.95
2023-05-09T05:38:25.784Z,49.48
2023-05-09T05:39:28.184Z,50.01
2023-05-09T05:40:33.441Z,49.72
2023-05-09T05:41:35.779Z,49.09
2023-05-09T05:42:39.578Z,49.15
2023-05-09T05:43:42.047Z,49.32
2023-05-09T05:44:45.437Z,49.11
2023-05-09T05:45:48.031Z,48.69
2023-05-09T05:46:51.370Z,48.45
2023-05-09T05:47:56.327Z,48.24
2023-05-09T05:48:58.800Z,47.79
2023-05-09T05:50:02.666Z,48.17
2023-05-09T05:51:05.127Z,47.97
2023-05-09T05:52:08.557Z,47.53
2023-05-09T05:53:11.994Z,47.99
2023-05-09T05:54:14.359Z,47.18
2023-05-09T05:55:18.020Z,46.74
2023-05-09T05:56:22.842Z,47.15
2023-05-09T05:57:26.195Z,46.94
2023-05-09T05:58:28.628Z,46.87
2023-05-09T05:59:31.959Z,47.16
2023-05-09T06:00:35.383Z,46.36
2023-05-09T06:01:37.788Z,46.17
2023-05-09T06:02:44.622Z,46.11
2023-05-09T06:03:49.920Z,45.80
2023-05-09T06:04:53.963Z,45.51
2023-05-09T06:05:59.244Z,45.20
2023-05-09T06:07:02.594Z,44.50
2023-05-09T06:08:06.249Z,44.16
2023-05-09T06:09:08.740Z,43.56
2023-05-09T06:10:12.372Z,43.06
2023-05-09T06:11:14.795Z,42.68
2023-05-09T06:12:19.523Z,42.67
2023-05-09T06:13:22.891Z,42.24
2023-05-09T06:14:25.458Z,41.80
2023-05-09T06:15:28.829Z,41.16
2023-05-09T06:16:31.450Z,41.03
2023-05-09T06:17:35.454Z,40.35
2023-05-09T06:18:40.272Z,39.71
2023-05-09T06:19:43.841Z,39.85
2023-05-09T06:20:46.200Z,39.91
2023-05-09T06:21:49.486Z,39.88
2023-05-09T06:22:52.546Z,39.65
2023-05-09T06:24:05.736Z,39.90
2023-05-09T06:25:13.644Z,39.31
2023-05-09T06:26:16.241Z,39.49
2023-05-09T06:27:21.121Z,38.64
2023-05-09T06:28:23.993Z,39.56
2023-05-09T06:29:27.391Z,38.79
2023-05-09T06:30:29.855Z,38.64
2023-05-09T06:31:33.256Z,39.51
2023-05-09T06:32:35.766Z,38.93
2023-05-09T06:33:39.462Z,39.11
2023-05-09T06:34:42.459Z,38.41
2023-05-09T06:35:46.076Z,38.75
2023-05-09T06:36:49.425Z,39.22
2023-05-09T06:37:51.832Z,39.26
2023-05-09T06:38:55.202Z,38.44
2023-05-09T06:39:58.583Z,38.86
2023-05-09T06:41:00.954Z,38.12
2023-05-09T06:42:04.476Z,38.51
2023-05-09T06:43:08.235Z,38.30
2023-05-09T06:44:11.637Z,38.31
2023-05-09T06:45:14.715Z,38.05
2023-05-09T06:46:18.490Z,38.51
2023-05-09T06:47:20.878Z,38.11
2023-05-09T06:48:24.911Z,37.53
2023-05-09T06:49:27.910Z,38.03
2023-05-09T06:50:32.910Z,37.68
2023-05-09T06:51:36.875Z,37.22
2023-05-09T06:52:39.381Z,36.87
2023-05-09T06:53:42.696Z,36.62
2023-05-09T06:54:45.229Z,36.22
2023-05-09T06:55:49.279Z,36.33
2023-05-09T06:56:51.713Z,36.26
2023-05-09T06:57:55.069Z,35.81
2023-05-09T06:58:58.802Z,35.27
2023-05-09T07:00:03.045Z,35.47
2023-05-09T07:01:05.884Z,35.33
2023-05-09T07:02:09.294Z,35.74
2023-05-09T07:03:12.022Z,35.52
2023-05-09T07:04:15.568Z,34.87
2023-05-09T07:05:18.755Z,35.18
2023-05-09T07:06:22.122Z,35.08
2023-05-09T07:07:24.947Z,34.76
2023-05-09T07:08:28.720Z,34.13
2023-05-09T07:09:32.036Z,33.83
2023-05-09T07:10:35.487Z,33.95
2023-05-09T07:11:38.016Z,33.78
2023-05-09T07:12:41.722Z,33.11
2023-05-09T07:13:45.247Z,32.56
2023-05-09T07:14:48.935Z,32.53
2023-05-09T07:15:52.924Z,32.62
2023-05-09T07:17:05.159Z,32.97
2023-05-09T07:18:13.747Z,32.46
2023-05-09T07:19:16.150Z,32.79
2023-05-09T07:20:19.688Z,33.01
2023-05-09T07:21:22.660Z,32.43
2023-05-09T07:22:26.068Z,32.43
2023-05-09T07:23:28.589Z,32.26
2023-05-09T07:24:31.962Z,31.66
2023-05-09T07:25:34.435Z,31.89
2023-05-09T07:26:37.911Z,31.71
2023-05-09T07:27:41.332Z,31.55
2023-05-09T07:28:43.748Z,31.33
2023-05-09T07:29:49.162Z,31.00
2023-05-09T07:30:53.174Z,30.60
2023-05-09T07:31:57.196Z,30.30
2023-05-09T07:32:59.676Z,30.25
2023-05-09T07:34:03.010Z,29.50
2023-05-09T07:35:06.394Z,29.22
2023-05-09T07:36:13.174Z,29.19
2023-05-09T07:37:16.501Z,29.17
2023-05-09T07:38:20.031Z,28.83
2023-05-09T07:39:22.438Z,29.16
2023-05-09T07:40:25.880Z,28.68
2023-05-09T07:41:28.335Z,28.88
2023-05-09T07:42:32.860Z,28.38
2023-05-09T07:43:35.494Z,28.65
2023-05-09T07:44:38.786Z,28.29
2023-05-09T07:45:41.455Z,28.20
2023-05-09T07:46:46.257Z,28.09
2023-05-09T07:47:49.688Z,28.04
2023-05-09T07:48:53.092Z,27.70
2023-05-09T07:49:55.496Z,27.87
2023-05-09T07:50:58.955Z,27.54
2023-05-09T07:52:01.366Z,28.54
2023-05-09T07:53:05.297Z,27.68
2023-05-09T07:54:10.145Z,27.22
2023-05-09T07:55:13.809Z,27.65
2023-05-09T07:56:17.473Z,28.04
2023-05-09T07:57:19.871Z,28.00
2023-05-09T07:58:23.453Z,28.17
2023-05-09T07:59:25.952Z,28.08
2023-05-09T08:00:29.338Z,28.21
2023-05-09T08:01:31.876Z,28.60
2023-05-09T08:02:36.718Z,28.37
2023-05-09T08:03:39.246Z,29.06
2023-05-09T08:04:42.842Z,28.41
2023-05-09T08:05:46.158Z,28.28
2023-05-09T08:06:49.026Z,28.10
2023-05-09T08:07:52.370Z,28.67
2023-05-09T08:08:55.753Z,27.69
2023-05-09T08:09:59.128Z,28.04
2023-05-09T08:11:02.508Z,27.31
2023-05-09T08:12:06.541Z,27.14
2023-05-09T08:13:09.132Z,27.79
2023-05-09T08:14:13.794Z,27.48
2023-05-09T08:15:17.734Z,27.99
2023-05-09T08:16:21.330Z,27.88
2023-05-09T08:17:23.804Z,27.47
2023-05-09T08:18:28.520Z,27.54
2023-05-09T08:19:31.879Z,27.29
2023-05-09T08:20:36.348Z,27.76
2023-05-09T08:21:39.828Z,26.90
2023-05-09T08:22:42.684Z,27.14
2023-05-09T08:23:46.691Z,28.09
2023-05-09T08:24:49.190Z,27.37
2023-05-09T08:25:54.493Z,27.14
2023-05-09T08:26:56.898Z,27.09
2023-05-09T08:28:00.398Z,26.94
2023-05-09T08:29:03.184Z,27.24
2023-05-09T08:30:07.946Z,26.78
2023-05-09T08:31:10.600Z,26.03
2023-05-09T08:32:14.411Z,25.77
2023-05-09T08:33:16.874Z,24.86
2023-05-09T08:34:22.691Z,24.98
2023-05-09T08:35:26.037Z,24.19
2023-05-09T08:36:29.407Z,24.26
2023-05-09T08:37:31.858Z,23.84
2023-05-09T08:38:36.455Z,23.89
2023-05-09T08:39:39.918Z,23.75
2023-05-09T08:40:43.381Z,23.69
2023-05-09T08:41:47.453Z,24.62
2023-05-09T08:42:52.105Z,24.86
2023-05-09T08:43:55.634Z,24.93
2023-05-09T08:44:58.894Z,24.58
2023-05-09T08:46:08.136Z,24.46
2023-05-09T08:47:11.539Z,24.31
2023-05-09T08:48:17.181Z,24.62
2023-05-09T08:49:21.725Z,24.01
2023-05-09T08:50:26.049Z,24.06
2023-05-09T08:51:32.323Z,23.67
2023-05-09T08:52:36.423Z,23.76
2023-05-09T08:53:40.580Z,23.96
2023-05-09T08:54:43.441Z,23.24
2023-05-09T08:55:47.168Z,23.57
2023-05-09T08:56:50.206Z,23.76
2023-05-09T08:57:54.222Z,23.68
2023-05-09T08:58:57.885Z,23.36
2023-05-09T09:00:01.410Z,23.48
2023-05-09T09:01:09.128Z,23.59
2023-05-09T09:02:14.610Z,22.98
2023-05-09T09:03:18.764Z,23.09
2023-05-09T09:04:22.951Z,23.00
2023-05-09T09:05:40.633Z,23.17
2023-05-09T09:06:44.785Z,23.10
2023-05-09T09:07:47.656Z,23.16
2023-05-09T09:08:52.237Z,22.73
2023-05-09T09:09:57.024Z,22.25
2023-05-09T09:10:59.562Z,22.63
2023-05-09T09:12:04.676Z,23.90
2023-05-09T09:13:10.104Z,23.11
2023-05-09T09:14:16.930Z,23.09
2023-05-09T09:15:24.264Z,22.81
2023-05-09T09:16:31.507Z,22.89
2023-05-09T09:17:37.742Z,23.60
2023-05-09T09:18:41.326Z,24.28
2023-05-09T09:19:50.015Z,24.14
2023-05-09T09:20:58.828Z,23.42
2023-05-09T09:22:05.743Z,23.84
2023-05-09T09:23:11.711Z,23.16
2023-05-09T09:24:23.977Z,23.95
2023-05-09T09:25:27.399Z,24.52
2023-05-09T09:26:31.947Z,23.53
2023-05-09T09:27:35.668Z,24.74
2023-05-09T09:28:38.095Z,24.86
2023-05-09T09:29:41.554Z,24.34
2023-05-09T09:30:44.880Z,25.04
2023-05-09T09:31:49.458Z,24.65
2023-05-09T09:32:52.720Z,24.68
2023-05-09T09:34:01.570Z,25.43
2023-05-09T09:35:11.078Z,25.62
2023-05-09T09:36:13.571Z,24.63
2023-05-09T09:37:24.299Z,25.82
2023-05-09T09:38:28.039Z,26.56
2023-05-09T09:39:30.390Z,26.21
2023-05-09T09:40:33.770Z,26.30
2023-05-09T09:41:39.028Z,26.60
2023-05-09T09:42:43.015Z,27.28
2023-05-09T09:43:48.284Z,26.12
2023-05-09T09:44:57.239Z,26.23
2023-05-09T09:46:02.741Z,26.32
2023-05-09T09:47:10.126Z,26.74
2023-05-09T09:48:13.639Z,26.74
2023-05-09T09:49:18.513Z,26.58
2023-05-09T09:50:25.582Z,27.13
2023-05-09T09:51:30.160Z,27.50
2023-05-09T09:52:32.580Z,27.73
2023-05-09T09:53:40.866Z,28.26
2023-05-09T09:54:43.522Z,28.05
2023-05-09T09:55:52.122Z,27.93
2023-05-09T09:56:57.032Z,27.93
2023-05-09T09:58:00.782Z,28.67
2023-05-09T09:59:11.749Z,28.15
2023-05-09T10:00:18.742Z,29.05
2023-05-09T10:01:25.341Z,28.70
2023-05-09T10:02:29.543Z,27.82
2023-05-09T10:03:36.856Z,27.28
2023-05-09T10:04:42.767Z,27.88
2023-05-09T10:05:46.934Z,28.32
2023-05-09T10:06:58.672Z,29.42
2023-05-09T10:08:04.263Z,29.51
2023-05-09T10:09:07.670Z,28.82
2023-05-09T10:10:11.439Z,29.22
2023-05-09T10:11:15.853Z,29.18
2023-05-09T10:12:20.847Z,29.31
2023-05-09T10:13:24.373Z,29.48
2023-05-09T10:14:27.958Z,29.25
2023-05-09T10:15:41.527Z,29.83
2023-05-09T10:16:50.176Z,30.19
2023-05-09T10:17:58.211Z,31.28
2023-05-09T10:19:01.737Z,31.76
2023-05-09T10:20:06.078Z,32.61
2023-05-09T10:21:15.942Z,32.35
2023-05-09T10:22:20.588Z,30.65
2023-05-09T10:23:25.427Z,30.58
2023-05-09T10:24:31.991Z,30.37
2023-05-09T10:25:45.775Z,31.43
2023-05-09T10:26:53.413Z,31.18
2023-05-09T10:28:02.612Z,31.74
2023-05-09T10:29:11.986Z,31.71
2023-05-09T10:30:20.274Z,30.38
2023-05-09T10:31:27.023Z,30.88
2023-05-09T10:32:54.018Z,30.48
2023-05-09T10:33:57.792Z,31.26
2023-05-09T10:35:07.027Z,31.00
2023-05-09T10:36:13.264Z,32.18
2023-05-09T10:37:17.108Z,32.09
2023-05-09T10:38:21.871Z,32.83
2023-05-09T10:39:26.286Z,33.49
2023-05-09T10:40:30.104Z,33.93
2023-05-09T10:41:34.167Z,33.68
2023-05-09T10:42:37.478Z,34.52
2023-05-09T10:43:41.498Z,34.92
2023-05-09T10:44:45.224Z,35.44
2023-05-09T10:45:49.252Z,35.61
2023-05-09T10:46:52.059Z,35.44
2023-05-09T10:47:57.110Z,36.37
2023-05-09T10:49:00.917Z,36.40
2023-05-09T10:50:04.939Z,36.11
2023-05-09T10:51:10.478Z,36.04
2023-05-09T10:52:14.792Z,35.88
2023-05-09T10:53:18.459Z,35.33
2023-05-09T10:54:31.088Z,34.64
2023-05-09T10:55:37.837Z,34.65
2023-05-09T10:56:41.281Z,34.79
2023-05-09T10:57:55.236Z,34.68
2023-05-09T10:58:58.052Z,34.94
2023-05-09T11:00:02.154Z,35.01
2023-05-09T11:01:07.268Z,34.89
2023-05-09T11:02:14.982Z,34.29
2023-05-09T11:03:19.484Z,34.56
2023-05-09T11:04:22.884Z,34.45
2023-05-09T11:05:27.095Z,34.35
2023-05-09T11:06:45.699Z,35.19
2023-05-09T11:08:19.962Z,35.18
2023-05-09T11:09:28.756Z,35.11
2023-05-09T11:10:44.146Z,35.33
2023-05-09T11:11:53.108Z,35.63
2023-05-09T11:12:58.338Z,35.15
2023-05-09T11:14:01.036Z,35.37
2023-05-09T11:15:09.157Z,35.34
2023-05-09T11:16:13.591Z,35.48
2023-05-09T11:17:31.832Z,34.35
2023-05-09T11:18:34.306Z,34.46
2023-05-09T11:19:40.066Z,34.41
2023-05-09T11:20:49.748Z,35.12
2023-05-09T11:22:02.428Z,35.28
2023-05-09T11:23:12.451Z,35.53
2023-05-09T11:24:17.345Z,35.73
2023-05-09T11:25:28.543Z,35.97
2023-05-09T11:26:33.960Z,35.70
2023-05-09T11:27:40.931Z,36.15
2023-05-09T11:28:54.964Z,36.18
2023-05-09T11:29:59.582Z,36.52
2023-05-09T11:31:13.264Z,36.45
2023-05-09T11:32:17.157Z,36.76
2023-05-09T11:33:24.068Z,37.01
2023-05-09T11:34:28.892Z,37.16
2023-05-09T11:35:34.352Z,37.27
2023-05-09T11:36:38.595Z,37.18
2023-05-09T11:37:47.296Z,37.08
2023-05-09T11:39:02.237Z,37.21
2023-05-09T11:40:06.775Z,37.09
2023-05-09T11:41:09.698Z,37.13
2023-05-09T11:42:13.351Z,36.65
2023-05-09T11:43:22.030Z,36.27
2023-05-09T11:44:28.177Z,36.25
2023-05-09T11:45:34.473Z,36.23
2023-05-09T11:46:37.642Z,36.15
2023-05-09T11:47:41.870Z,35.82
2023-05-09T11:48:45.500Z,35.99
2023-05-09T11:49:48.964Z,35.96
2023-05-09T11:50:52.407Z,36.22
2023-05-09T11:51:54.828Z,35.98
2023-05-09T11:52:58.593Z,35.85
2023-05-09T11:54:04.716Z,35.48
2023-05-09T11:55:12.045Z,35.00
2023-05-09T11:56:16.031Z,35.03
2023-05-09T11:57:19.602Z,35.15
2023-05-09T11:58:22.019Z,35.11
2023-05-09T11:59:26.013Z,34.70
2023-05-09T12:00:29.470Z,35.33
2023-05-09T12:01:32.223Z,34.74
2023-05-09T12:02:36.051Z,34.88
2023-05-09T12:03:43.401Z,34.85
2023-05-09T12:04:47.245Z,34.82
2023-05-09T12:05:51.051Z,35.38
2023-05-09T12:06:53.597Z,35.65
2023-05-09T12:07:57.982Z,36.24
2023-05-09T12:09:01.785Z,36.37
2023-05-09T12:10:07.508Z,37.36
2023-05-09T12:11:10.739Z,37.27
2023-05-09T12:12:14.944Z,37.30
2023-05-09T12:13:20.118Z,36.71
2023-05-09T12:14:31.133Z,36.28
2023-05-09T12:15:38.878Z,36.80
2023-05-09T12:16:46.501Z,36.34
2023-05-09T12:18:03.371Z,36.23
2023-05-09T12:19:06.319Z,36.71
2023-05-09T12:20:10.970Z,36.95
2023-05-09T12:21:14.731Z,37.32
2023-05-09T12:22:18.165Z,37.65
2023-05-09T12:23:21.712Z,37.22
2023-05-09T12:24:28.393Z,37.33
2023-05-09T12:25:31.801Z,37.72
2023-05-09T12:26:34.278Z,37.82
2023-05-09T12:27:39.136Z,38.26
2023-05-09T12:28:43.000Z,38.55
2023-05-09T12:29:48.910Z,38.60
2023-05-09T12:30:52.789Z,38.81
2023-05-09T12:31:55.986Z,38.48
2023-05-09T12:33:00.214Z,38.36
2023-05-09T12:34:03.957Z,38.27
2023-05-09T12:35:11.149Z,37.45
2023-05-09T12:36:16.106Z,37.22
2023-05-09T12:37:20.617Z,37.33
2023-05-09T12:38:24.589Z,37.75
2023-05-09T12:39:29.352Z,37.90
2023-05-09T12:40:31.995Z,38.00
2023-05-09T12:41:43.869Z,38.28
2023-05-09T12:42:59.929Z,38.37
2023-05-09T12:44:03.521Z,38.25
2023-05-09T12:45:09.908Z,38.22
2023-05-09T12:46:13.516Z,37.84
2023-05-09T12:47:16.938Z,38.17
2023-05-09T12:48:24.185Z,38.18
2023-05-09T12:49:28.323Z,38.04
2023-05-09T12:50:35.973Z,38.45
2023-05-09T12:51:49.138Z,38.36
2023-05-09T12:53:02.477Z,38.28
2023-05-09T12:54:11.036Z,37.71
2023-05-09T12:55:15.999Z,38.06
2023-05-09T12:56:23.033Z,38.39
2023-05-09T12:57:31.386Z,38.56
2023-05-09T12:58:49.268Z,38.50
2023-05-09T12:59:52.678Z,38.22
2023-05-09T13:00:55.178Z,37.95
2023-05-09T13:02:00.064Z,37.57
2023-05-09T13:03:04.468Z,37.77
2023-05-09T13:04:09.556Z,37.32
2023-05-09T13:05:16.254Z,37.23
2023-05-09T13:06:19.203Z,37.23
2023-05-09T13:07:22.729Z,37.69
2023-05-09T13:08:25.425Z,37.77
2023-05-09T13:09:29.749Z,37.61
2023-05-09T13:10:33.904Z,37.73
2023-05-09T13:11:38.757Z,37.79
2023-05-09T13:12:48.193Z,37.83
2023-05-09T13:13:51.651Z,37.79
2023-05-09T13:14:54.156Z,37.67
2023-05-09T13:15:57.651Z,37.38
2023-05-09T13:17:01.041Z,36.67
2023-05-09T13:18:04.740Z,36.42
2023-05-09T13:19:07.371Z,36.37
2023-05-09T13:20:10.887Z,36.37
2023-05-09T13:21:13.347Z,36.20
2023-05-09T13:22:17.572Z,36.27
2023-05-09T13:23:22.314Z,35.48
2023-05-09T13:24:25.844Z,35.57
2023-05-09T13:25:28.942Z,35.94
2023-05-09T13:26:34.085Z,35.93
2023-05-09T13:27:37.920Z,35.77
2023-05-09T13:28:41.430Z,35.89
2023-05-09T13:29:44.885Z,35.86
2023-05-09T13:30:47.621Z,36.35
2023-05-09T13:31:51.403Z,36.38
2023-05-09T13:32:53.825Z,36.57
2023-05-09T13:33:57.300Z,36.55
2023-05-09T13:34:59.694Z,36.85
2023-05-09T13:36:03.966Z,36.60
2023-05-09T13:37:06.426Z,36.90
2023-05-09T13:38:09.803Z,36.67
2023-05-09T13:39:13.646Z,36.95
2023-05-09T13:40:16.468Z,37.07
2023-05-09T13:41:24.032Z,36.53
2023-05-09T13:42:29.022Z,36.70
2023-05-09T13:43:31.487Z,36.54
2023-05-09T13:44:34.874Z,35.86
2023-05-09T13:45:37.264Z,35.90
2023-05-09T13:46:40.896Z,36.12
2023-05-09T13:47:43.755Z,35.86
2023-05-09T13:48:47.841Z,35.98
2023-05-09T13:49:50.617Z,36.35
2023-05-09T13:50:54.053Z,36.03
2023-05-09T13:51:57.887Z,36.36
2023-05-09T13:53:01.488Z,36.30
2023-05-09T13:54:08.683Z,36.38